Telfer, India

6:34 AM AWST on September 18, 2014 (GMT +0800)
Telfer | Change Station
CLOSE
Current Station
Airport
Location: Telfer,
Elevation: 971 ft
Nearby Weather Stations

Elev 971 ft 21.72 °S, 122.23 °E | Updated 34 minutes ago

Clear
Clear
75 °F
Feels Like 75 °F
N
13
Wind Variable Wind from WSW
Gusts mph

Today
High -- | Low -- °F
--% Chance of Precip.
Yesterday
High -- | Low -- °F
Precip. -- in
5:45 AM 5:45 PM
Waning Crescent, 32% visible
Pressure 29.98 in
Visibility -9999.0 miles
Clouds
Dew Point 34 °F
Humidity 22%
Rainfall 0.00 in
Snow Depth Not available.
UV Not available.
Pollen Not available.
Air Quality Not available.
Flu Activity Not available.
METAR YTEF 172200Z AUTO 24011KT //// // ////// 24/01 Q1015

More Conditions Fewer Conditions

Pressure 29.98 in
Visibility -9999.0 miles
Clouds
Dew Point 34 °F
Humidity 22%
Rainfall 0.00 in
Snow Depth Not available.
UV Not available.
Pollen Not available.
Air Quality Not available.
Flu Activity Not available.
METAR YTEF 172200Z AUTO 24011KT //// // ////// 24/01 Q1015

More Conditions Fewer Conditions

10-Day Weather Forecast

Almanac

Astronomy

Sep. 18, 2014 Rise Set
Actual Time 5:45 AM AWST 5:45 PM AWST
Civil Twilight 5:22 AM AWST 6:08 PM AWST
Nautical Twilight 4:57 AM AWST 6:34 PM AWST
Astronomical Twilight 4:31 AM AWST 6:59 PM AWST
Moon 1:29 AM AWST (9/18) 12:53 PM AWST (9/18)
Length of Visible Light 12h 45m
Length of Day
12h 00m
Tomorrow will be 1m 13s longer.
Waning Crescent, 32% of the Moon is Illuminated
Sep 17
Waning Crescent
Sep 24
New
Oct 1
First Quarter
Oct 8
Full
Oct 15
Last Quarter

Yesterday's Extremes

Country Highs Country Lows

Community

WunderPhotos

Upload Photos

1,754,172 photos uploaded!

Nearby

Snow Depth

Not available.

Earthquake Activity

City Distance Mag. Time & Date
No recent earthquake activity has been reported nearby.
Minimum magnitude displayed is 2.5.

Coastal Water Temperatures

Place Temperature
No Stations Reporting

Nearby Weather Stations